Time;durP1;ratioP1;P1;durP2;ratioP2;P2;SDS_P1;SDS_P2;PMS_P1;PMS_P2;Temp;Humidity;BMP_temperature;BMP_pressure;BME280_temperature;BME280_humidity;BME280_pressure;Samples;Min_cycle;Max_cycle;Signal;HPM_P1;HPM_P2
2022/01/22 00:00:34;;;;;;;8.68;6.88;;;3.00;99.90;;;;;;5025874;28;20466;-77
2022/01/22 00:03:01;;;;;;;7.18;6.28;;;3.10;99.90;;;;;;5024918;28;20080;-78
2022/01/22 00:05:27;;;;;;;11.98;8.00;;;3.00;99.90;;;;;;5022599;28;20018;-78
2022/01/22 00:07:52;;;;;;;10.52;6.00;;;3.00;99.90;;;;;;5018918;28;20037;-78
2022/01/22 00:10:22;;;;;;;8.65;6.60;;;3.00;99.90;;;;;;5022538;28;20033;-79
2022/01/22 00:15:19;;;;;;;10.20;6.18;;;3.10;99.90;;;;;;5022440;28;20049;-78
2022/01/22 00:17:45;;;;;;;11.80;5.63;;;3.10;99.90;;;;;;5038238;28;20505;-78
2022/01/22 00:20:13;;;;;;;7.32;6.35;;;3.10;99.90;;;;;;5019748;28;20033;-77
2022/01/22 00:22:39;;;;;;;8.40;5.80;;;3.10;99.90;;;;;;5017831;28;20057;-77
2022/01/22 00:25:08;;;;;;;8.65;5.88;;;3.10;99.90;;;;;;5017064;28;20329;-77
2022/01/22 00:27:39;;;;;;;12.73;5.97;;;3.10;99.90;;;;;;5017212;28;20014;-77
2022/01/22 00:30:09;;;;;;;6.45;5.07;;;3.20;99.90;;;;;;5016605;28;20037;-78
2022/01/22 00:32:35;;;;;;;6.45;5.30;;;3.20;99.90;;;;;;5017812;28;20030;-77
2022/01/22 00:35:02;;;;;;;6.35;5.65;;;3.20;99.90;;;;;;5016219;28;20536;-78
2022/01/22 00:37:28;;;;;;;6.63;5.30;;;3.20;99.90;;;;;;5031595;28;20034;-77
2022/01/22 00:39:53;;;;;;;8.50;6.03;;;3.20;99.90;;;;;;5016478;28;20087;-77
2022/01/22 00:42:21;;;;;;;6.85;5.40;;;3.20;99.90;;;;;;5031708;28;20390;-77
2022/01/22 00:44:49;;;;;;;8.50;5.97;;;3.20;99.90;;;;;;5017692;28;20022;-77
2022/01/22 00:47:15;;;;;;;7.50;5.80;;;3.20;99.90;;;;;;5019491;28;20503;-78
2022/01/22 00:49:41;;;;;;;8.18;5.88;;;3.30;99.90;;;;;;5022006;28;20061;-78
2022/01/22 00:52:06;;;;;;;11.80;6.55;;;3.30;99.90;;;;;;5023973;28;20026;-77
2022/01/22 00:54:32;;;;;;;9.38;5.65;;;3.20;99.90;;;;;;5025420;28;20029;-77
2022/01/22 00:56:58;;;;;;;6.60;5.50;;;3.20;99.90;;;;;;5031016;28;20043;-77
2022/01/22 00:59:24;;;;;;;10.57;5.85;;;3.30;99.90;;;;;;5028334;28;20498;-78
2022/01/22 01:01:49;;;;;;;7.35;6.00;;;3.30;99.90;;;;;;5025905;28;20034;-77
2022/01/22 01:04:15;;;;;;;7.55;6.05;;;3.30;99.90;;;;;;5046514;28;20029;-78
2022/01/22 01:06:41;;;;;;;6.05;5.45;;;3.30;99.90;;;;;;5019857;28;20022;-77
2022/01/22 01:09:09;;;;;;;10.05;5.50;;;3.30;99.90;;;;;;5017822;28;20034;-79
2022/01/22 01:11:40;;;;;;;6.63;5.88;;;3.40;99.90;;;;;;5024551;28;20030;-78
2022/01/22 01:14:08;;;;;;;10.55;5.80;;;3.40;99.90;;;;;;5026713;28;20034;-77
2022/01/22 01:35:21;;;;;;;7.35;5.72;;;3.60;99.90;;;;;;5015822;28;20110;-78
2022/01/22 01:37:49;;;;;;;8.48;5.93;;;3.60;99.90;;;;;;5014217;28;20033;-78
2022/01/22 01:40:18;;;;;;;9.45;5.97;;;3.60;99.90;;;;;;5014640;28;20025;-79
2022/01/22 01:42:53;;;;;;;8.48;6.32;;;3.60;99.90;;;;;;5014572;28;20028;-78
2022/01/22 01:45:18;;;;;;;9.07;7.03;;;3.70;99.90;;;;;;5013655;28;20033;-78
2022/01/22 01:47:47;;;;;;;7.57;6.10;;;3.70;99.90;;;;;;5015747;28;20478;-78
2022/01/22 01:50:13;;;;;;;7.85;6.35;;;3.70;99.90;;;;;;5014031;28;20131;-77
2022/01/22 01:55:15;;;;;;;9.48;5.75;;;3.70;99.90;;;;;;5014498;28;20033;-77
2022/01/22 01:57:43;;;;;;;10.07;7.15;;;3.70;99.90;;;;;;5029005;28;20485;-76
2022/01/22 02:00:11;;;;;;;7.50;6.63;;;3.70;99.90;;;;;;5028421;28;20026;-76
2022/01/22 02:02:38;;;;;;;11.10;7.00;;;3.70;99.90;;;;;;5028559;28;20025;-77
2022/01/22 02:05:04;;;;;;;17.23;8.45;;;3.70;99.90;;;;;;5013006;28;20389;-78
2022/01/22 02:07:30;;;;;;;13.27;7.68;;;3.70;99.90;;;;;;5013627;28;20044;-77
2022/01/22 02:09:57;;;;;;;10.68;6.82;;;3.70;99.90;;;;;;5014713;28;20022;-77
2022/01/22 02:12:57;;;;;;;11.70;7.60;;;3.80;99.90;;;;;;5012739;28;20026;-76
2022/01/22 02:23:33;;;;;;;11.70;7.43;;;3.70;99.90;;;;;;5013014;28;20033;-77
2022/01/22 02:25:59;;;;;;;11.32;6.38;;;3.70;99.90;;;;;;5012713;28;20443;-77
2022/01/22 02:28:25;;;;;;;14.73;8.70;;;3.70;99.90;;;;;;5014784;28;20014;-77
2022/01/22 02:30:56;;;;;;;8.52;7.00;;;3.70;99.90;;;;;;5013091;28;20030;-78
2022/01/22 02:33:32;;;;;;;9.65;8.30;;;3.70;99.90;;;;;;5029292;28;20030;-78
2022/01/22 02:36:22;;;;;;;12.77;7.43;;;3.70;99.90;;;;;;5013783;28;20046;-77
2022/01/22 02:41:26;;;;;;;8.13;6.95;;;3.70;99.90;;;;;;5012787;28;20037;-78
2022/01/22 02:43:53;;;;;;;8.70;7.32;;;3.70;99.90;;;;;;5013612;28;20478;-78
2022/01/22 02:46:23;;;;;;;12.07;7.15;;;3.70;99.90;;;;;;5031149;28;20022;-76
2022/01/22 02:48:50;;;;;;;7.60;6.45;;;3.70;99.90;;;;;;5037201;28;20029;-78
2022/01/22 02:51:16;;;;;;;11.40;6.88;;;3.70;99.90;;;;;;5052987;28;20014;-77
2022/01/22 02:53:41;;;;;;;9.63;7.97;;;3.70;99.90;;;;;;5034068;28;20056;-78
2022/01/22 02:56:07;;;;;;;12.80;8.02;;;3.70;99.90;;;;;;5027891;28;20433;-77
2022/01/22 02:58:34;;;;;;;12.43;7.38;;;3.70;99.90;;;;;;5026684;28;20023;-78
2022/01/22 03:00:59;;;;;;;11.90;8.02;;;3.70;99.90;;;;;;5018706;28;20484;-77
2022/01/22 03:03:25;;;;;;;13.98;7.80;;;3.60;99.90;;;;;;5033150;28;20030;-77
2022/01/22 03:05:51;;;;;;;10.75;7.72;;;3.70;99.90;;;;;;5033526;28;20509;-78
2022/01/22 03:08:16;;;;;;;10.90;8.48;;;3.70;99.90;;;;;;5032261;28;20018;-77
2022/01/22 03:10:49;;;;;;;14.32;7.85;;;3.60;99.90;;;;;;5016040;28;20033;-77
2022/01/22 03:13:54;;;;;;;10.63;7.50;;;3.70;99.90;;;;;;5031176;28;20030;-78
2022/01/22 03:16:12;;;;;;;8.60;7.45;;;3.70;99.90;;;;;;5015790;28;20048;-77
2022/01/22 03:18:55;;;;;;;9.63;7.80;;;3.70;99.90;;;;;;5030423;28;20553;-77
2022/01/22 03:29:21;;;;;;;10.77;7.72;;;3.60;99.90;;;;;;5016495;28;20036;-77
2022/01/22 03:31:47;;;;;;;9.20;8.20;;;3.60;99.90;;;;;;5015449;28;20022;-77
2022/01/22 03:34:14;;;;;;;11.13;8.60;;;3.60;99.90;;;;;;5015077;28;20034;-77
2022/01/22 03:36:40;;;;;;;12.32;8.38;;;3.60;99.90;;;;;;5015801;28;20441;-77
2022/01/22 03:39:08;;;;;;;11.75;8.70;;;3.60;99.90;;;;;;5023228;28;20010;-78
2022/01/22 03:41:34;;;;;;;9.57;8.23;;;3.60;99.90;;;;;;5054959;28;20033;-77
2022/01/22 03:44:00;;;;;;;11.98;8.13;;;3.70;99.90;;;;;;5033873;28;20018;-77
2022/01/22 03:46:25;;;;;;;9.23;8.27;;;3.70;99.90;;;;;;5038719;28;20021;-77
2022/01/22 03:48:51;;;;;;;9.73;8.48;;;3.60;99.90;;;;;;5040063;28;20025;-77
2022/01/22 03:51:17;;;;;;;13.52;8.65;;;3.70;99.90;;;;;;5039674;28;20089;-77
2022/01/22 03:53:43;;;;;;;11.02;9.13;;;3.60;99.90;;;;;;5039144;28;20020;-76
2022/01/22 03:56:10;;;;;;;10.95;7.90;;;3.70;99.90;;;;;;5055735;28;20093;-77
2022/01/22 03:58:39;;;;;;;9.70;7.60;;;3.70;99.90;;;;;;5055446;28;20018;-78
2022/01/22 04:04:05;;;;;;;11.65;8.77;;;3.60;99.90;;;;;;5017888;28;20036;-78
2022/01/22 04:09:06;;;;;;;11.98;8.85;;;3.60;99.90;;;;;;5037673;28;20022;-76
2022/01/22 04:11:36;;;;;;;13.13;7.93;;;3.60;99.90;;;;;;5038765;28;20014;-76
2022/01/22 04:14:04;;;;;;;15.55;8.85;;;3.70;99.90;;;;;;5036911;28;20029;-78
2022/01/22 04:16:31;;;;;;;11.73;7.95;;;3.70;99.90;;;;;;5031245;28;20046;-77
2022/01/22 04:27:14;;;;;;;12.93;8.85;;;3.70;99.90;;;;;;5016276;28;20029;-77
2022/01/22 04:29:40;;;;;;;9.30;7.75;;;3.70;99.90;;;;;;5014724;28;20030;-77
2022/01/22 04:32:06;;;;;;;11.43;8.98;;;3.70;99.90;;;;;;5016850;28;20037;-76
2022/01/22 04:34:32;;;;;;;10.07;8.02;;;3.70;99.90;;;;;;5030479;28;20034;-77
2022/01/22 04:36:58;;;;;;;10.93;8.23;;;3.70;99.90;;;;;;5030892;28;20520;-77
2022/01/22 04:39:26;;;;;;;11.15;8.60;;;3.70;99.90;;;;;;5013513;28;20025;-77
2022/01/22 04:41:54;;;;;;;13.15;8.25;;;3.70;99.90;;;;;;5015592;28;20397;-77
2022/01/22 04:44:20;;;;;;;12.38;9.32;;;3.70;99.90;;;;;;5017260;28;20433;-77
2022/01/22 04:55:01;;;;;;;12.02;7.18;;;3.80;99.90;;;;;;5014999;28;20033;-77
2022/01/22 04:57:34;;;;;;;10.07;7.68;;;3.80;99.90;;;;;;5014410;28;20030;-77
2022/01/22 05:00:00;;;;;;;9.57;6.97;;;3.80;99.90;;;;;;5029985;28;20087;-77
2022/01/22 05:02:26;;;;;;;10.75;7.88;;;3.80;99.90;;;;;;5015140;28;20025;-77
2022/01/22 05:04:51;;;;;;;9.70;7.88;;;3.80;99.90;;;;;;5014590;28;20026;-77
2022/01/22 05:07:17;;;;;;;9.73;6.90;;;3.80;99.90;;;;;;5014669;28;20026;-77
2022/01/22 05:09:43;;;;;;;12.60;7.85;;;3.80;99.90;;;;;;5029229;28;20431;-77
2022/01/22 05:12:09;;;;;;;11.98;7.68;;;3.80;99.90;;;;;;5014168;28;20084;-77
2022/01/22 05:14:35;;;;;;;10.95;8.98;;;3.80;99.90;;;;;;5014369;28;20040;-78
2022/01/22 05:17:03;;;;;;;10.77;8.07;;;3.80;99.90;;;;;;5015998;28;20109;-78
2022/01/22 05:19:47;;;;;;;10.90;7.68;;;3.80;99.90;;;;;;5018284;28;20030;-77
2022/01/22 05:24:43;;;;;;;12.25;8.38;;;3.80;99.90;;;;;;5016168;28;20026;-77
2022/01/22 05:37:33;;;;;;;12.80;7.97;;;3.80;99.90;;;;;;5015255;28;20084;-76
2022/01/22 05:39:58;;;;;;;10.88;7.65;;;3.80;99.90;;;;;;5013475;28;20052;-77
2022/01/22 05:42:24;;;;;;;8.70;7.80;;;3.80;99.90;;;;;;5029003;28;20018;-77
2022/01/22 05:44:50;;;;;;;10.38;8.18;;;3.90;99.90;;;;;;5019904;28;20022;-76
2022/01/22 05:47:21;;;;;;;11.50;8.52;;;3.80;99.90;;;;;;5049529;28;20076;-77
2022/01/22 05:49:47;;;;;;;12.15;9.00;;;3.80;99.90;;;;;;5036563;28;20034;-78
2022/01/22 05:52:18;;;;;;;11.15;8.60;;;3.80;99.90;;;;;;5052115;28;20061;-77
2022/01/22 05:59:56;;;;;;;10.13;7.75;;;3.90;99.90;;;;;;5014616;28;20099;-77
2022/01/22 06:02:22;;;;;;;10.57;8.27;;;3.90;99.90;;;;;;5014845;28;20029;-77
2022/01/22 06:04:47;;;;;;;10.20;7.78;;;3.90;99.90;;;;;;5014078;28;20486;-78
2022/01/22 06:07:13;;;;;;;9.82;7.85;;;3.90;99.90;;;;;;5016082;28;20494;-77
2022/01/22 06:09:52;;;;;;;12.30;8.15;;;3.90;99.90;;;;;;5016115;28;20414;-77
2022/01/22 06:12:31;;;;;;;13.02;8.50;;;3.90;99.90;;;;;;5029960;28;20505;-77
2022/01/22 06:14:56;;;;;;;13.07;8.27;;;3.90;99.90;;;;;;5024786;28;20033;-78
2022/01/22 06:17:22;;;;;;;8.18;7.38;;;3.90;99.90;;;;;;5022277;28;20104;-78
2022/01/22 06:19:47;;;;;;;10.65;7.97;;;3.90;99.90;;;;;;5014085;28;20034;-78
2022/01/22 06:22:13;;;;;;;10.93;8.32;;;3.90;99.90;;;;;;5014017;28;20104;-77
2022/01/22 06:24:38;;;;;;;14.70;8.65;;;3.90;99.90;;;;;;5025071;28;20022;-77
2022/01/22 06:27:04;;;;;;;11.88;6.95;;;3.90;99.90;;;;;;5052666;28;20052;-76
2022/01/22 06:29:30;;;;;;;11.82;8.50;;;3.90;99.90;;;;;;5018854;28;20038;-76
2022/01/22 06:31:55;;;;;;;9.00;7.55;;;3.90;99.90;;;;;;5020707;28;20041;-77
2022/01/22 06:34:21;;;;;;;12.40;8.25;;;3.90;99.90;;;;;;5018915;28;20044;-77
2022/01/22 06:36:47;;;;;;;8.73;7.40;;;3.90;99.90;;;;;;5015006;28;20500;-78
2022/01/22 06:39:15;;;;;;;8.98;7.30;;;3.90;99.90;;;;;;5018239;28;20129;-78
2022/01/22 06:41:44;;;;;;;10.23;7.60;;;3.90;99.90;;;;;;5017918;28;20018;-77
2022/01/22 06:44:22;;;;;;;8.90;7.32;;;3.90;99.90;;;;;;5018399;28;20022;-78
2022/01/22 06:46:52;;;;;;;11.55;6.97;;;3.90;99.90;;;;;;5019703;28;20026;-77
2022/01/22 06:49:17;;;;;;;9.30;7.25;;;3.90;99.90;;;;;;5041001;28;20038;-77
2022/01/22 06:51:43;;;;;;;9.05;7.40;;;3.90;99.90;;;;;;5041026;28;20029;-77
2022/01/22 06:54:10;;;;;;;12.13;8.27;;;3.90;99.90;;;;;;5040726;28;20089;-76
2022/01/22 06:56:37;;;;;;;8.82;6.18;;;3.90;99.90;;;;;;5056719;28;20137;-77
2022/01/22 06:59:06;;;;;;;11.60;7.20;;;3.90;99.90;;;;;;5053204;28;20026;-78
2022/01/22 07:01:32;;;;;;;8.13;6.82;;;3.90;99.90;;;;;;5017441;28;20025;-76
2022/01/22 07:03:57;;;;;;;9.88;7.30;;;3.90;99.90;;;;;;5017428;28;20105;-79
2022/01/22 07:06:23;;;;;;;13.55;6.88;;;4.00;99.90;;;;;;5032558;28;20504;-78
2022/01/22 07:08:50;;;;;;;10.75;8.07;;;3.90;99.90;;;;;;5016897;28;20652;-77
2022/01/22 07:11:16;;;;;;;10.48;7.20;;;4.00;99.90;;;;;;5032144;28;20037;-77
2022/01/22 07:13:43;;;;;;;9.45;7.82;;;3.90;99.90;;;;;;5017144;28;20028;-78
2022/01/22 07:16:09;;;;;;;11.52;7.55;;;3.90;99.90;;;;;;5017762;28;20101;-78
2022/01/22 07:18:34;;;;;;;10.50;7.65;;;3.90;99.90;;;;;;5017304;28;20105;-78
2022/01/22 07:21:13;;;;;;;9.95;6.90;;;3.90;99.90;;;;;;5032827;28;20492;-78
2022/01/22 07:24:07;;;;;;;13.55;8.13;;;3.90;99.90;;;;;;5036435;28;20030;-77
2022/01/22 07:26:27;;;;;;;9.52;6.10;;;3.90;99.90;;;;;;5017588;28;20033;-77
2022/01/22 07:28:53;;;;;;;9.55;6.70;;;3.90;99.90;;;;;;5016744;28;20022;-77
2022/01/22 07:31:26;;;;;;;10.82;7.75;;;3.90;99.90;;;;;;5016946;28;20033;-78
2022/01/22 07:33:52;;;;;;;10.65;6.88;;;4.00;99.90;;;;;;5016463;28;20068;-78
2022/01/22 07:36:18;;;;;;;11.43;7.38;;;4.00;99.90;;;;;;5017147;28;20029;-78
2022/01/22 07:38:44;;;;;;;8.27;6.82;;;4.10;99.90;;;;;;5032721;28;20098;-78
2022/01/22 07:41:11;;;;;;;9.07;7.30;;;4.00;99.90;;;;;;5017169;28;20022;-78
2022/01/22 07:43:38;;;;;;;9.57;7.57;;;4.00;99.90;;;;;;5017190;28;20481;-77
2022/01/22 07:46:05;;;;;;;11.55;7.60;;;4.10;99.90;;;;;;5016562;28;20101;-77
2022/01/22 07:48:31;;;;;;;8.20;5.75;;;4.00;99.90;;;;;;5016317;28;20018;-77
2022/01/22 07:50:56;;;;;;;9.57;6.80;;;4.00;99.90;;;;;;5015937;28;20034;-77
2022/01/22 07:53:24;;;;;;;9.27;7.88;;;4.00;99.90;;;;;;5016385;28;20036;-78
2022/01/22 07:55:50;;;;;;;11.77;7.20;;;4.00;99.90;;;;;;5016916;28;20438;-76
2022/01/22 07:58:15;;;;;;;11.25;6.63;;;4.00;99.90;;;;;;5016585;28;20053;-78
2022/01/22 08:00:41;;;;;;;10.63;7.35;;;4.00;99.90;;;;;;5017883;28;20031;-77
2022/01/22 08:03:08;;;;;;;8.10;6.82;;;4.10;99.90;;;;;;5017687;28;20494;-78
2022/01/22 08:05:35;;;;;;;11.07;7.68;;;4.00;99.90;;;;;;5020071;28;20037;-76
2022/01/22 08:08:00;;;;;;;8.20;7.10;;;4.10;99.90;;;;;;5018850;28;20049;-77
2022/01/22 08:10:26;;;;;;;10.80;7.65;;;4.00;99.90;;;;;;5019645;28;20053;-78
2022/01/22 08:12:52;;;;;;;7.97;6.97;;;4.00;99.90;;;;;;5017496;28;20394;-78
2022/01/22 08:15:18;;;;;;;12.60;7.90;;;4.00;99.90;;;;;;5022296;28;20086;-77
2022/01/22 08:17:45;;;;;;;11.90;7.60;;;4.00;99.90;;;;;;5023285;28;20387;-77
2022/01/22 08:20:13;;;;;;;11.95;7.95;;;4.00;99.90;;;;;;5024325;28;20053;-76
2022/01/22 08:22:39;;;;;;;7.57;6.80;;;4.00;99.90;;;;;;5026996;28;20026;-78
2022/01/22 08:25:06;;;;;;;9.82;8.10;;;3.90;99.90;;;;;;5027896;28;20438;-78
2022/01/22 08:30:30;;;;;;;11.52;8.55;;;3.90;99.90;;;;;;4972443;28;20100;-78
2022/01/22 08:35:52;;;;;;;8.43;7.63;;;3.90;99.90;;;;;;5017346;28;20049;-77
2022/01/22 08:38:19;;;;;;;10.45;8.57;;;3.90;99.90;;;;;;5023113;28;20022;-77
2022/01/22 08:40:44;;;;;;;12.80;8.75;;;4.00;99.90;;;;;;5029210;28;20029;-78
2022/01/22 08:43:10;;;;;;;10.50;8.82;;;4.00;99.90;;;;;;5034241;28;20030;-78
2022/01/22 08:45:36;;;;;;;9.68;8.07;;;3.90;99.90;;;;;;5036919;28;20082;-77
2022/01/22 08:48:03;;;;;;;8.85;7.85;;;3.90;99.90;;;;;;5038084;28;20037;-77
2022/01/22 08:50:29;;;;;;;12.48;7.57;;;3.90;99.90;;;;;;5032794;28;20022;-78
2022/01/22 08:52:54;;;;;;;10.25;7.53;;;4.00;99.90;;;;;;5041373;28;20164;-78
2022/01/22 08:55:20;;;;;;;10.43;8.50;;;4.00;99.90;;;;;;5025528;28;20022;-78
2022/01/22 08:57:49;;;;;;;13.35;8.48;;;4.00;99.90;;;;;;5021588;28;20057;-77
2022/01/22 09:00:16;;;;;;;8.70;7.47;;;4.00;99.90;;;;;;5019418;28;20036;-78
2022/01/22 09:02:44;;;;;;;10.27;8.25;;;4.00;99.90;;;;;;5021021;28;20026;-79
2022/01/22 09:05:10;;;;;;;10.85;8.40;;;4.00;99.90;;;;;;5034554;28;20026;-77
2022/01/22 09:07:35;;;;;;;13.77;8.60;;;4.00;99.90;;;;;;5021305;28;20367;-79
2022/01/22 09:10:01;;;;;;;9.73;7.90;;;4.00;99.90;;;;;;5045152;28;20018;-78
2022/01/22 09:12:27;;;;;;;13.05;8.35;;;4.00;99.90;;;;;;5038312;28;20041;-79
2022/01/22 09:14:52;;;;;;;14.18;7.85;;;4.00;99.90;;;;;;5026932;28;20052;-78
2022/01/22 09:17:18;;;;;;;11.93;8.40;;;4.00;99.90;;;;;;5023765;28;20022;-77
2022/01/22 09:19:46;;;;;;;17.00;8.73;;;4.20;99.90;;;;;;5021110;28;20037;-80
2022/01/22 09:22:12;;;;;;;13.25;8.48;;;4.30;99.90;;;;;;5020104;28;20022;-78
2022/01/22 09:24:39;;;;;;;11.23;8.45;;;4.30;99.90;;;;;;5021917;28;20034;-79
2022/01/22 09:27:05;;;;;;;12.23;8.02;;;4.30;99.90;;;;;;5021655;28;20078;-79
2022/01/22 09:29:31;;;;;;;15.43;10.68;;;4.30;99.90;;;;;;5021640;28;20038;-77
2022/01/22 09:31:57;;;;;;;11.93;8.23;;;4.30;99.90;;;;;;5022274;28;20029;-78
2022/01/22 09:34:22;;;;;;;9.68;7.97;;;4.30;99.90;;;;;;5020857;28;20508;-78
2022/01/22 09:36:48;;;;;;;9.55;8.45;;;4.30;99.90;;;;;;5029483;28;20040;-77
2022/01/22 09:39:14;;;;;;;10.27;7.78;;;4.30;99.90;;;;;;5026114;28;20405;-78
2022/01/22 09:41:39;;;;;;;10.82;8.30;;;4.30;99.90;;;;;;5019456;28;20055;-77
2022/01/22 09:44:05;;;;;;;8.65;6.65;;;4.40;99.90;;;;;;5019029;28;20021;-77
2022/01/22 09:46:31;;;;;;;11.48;9.05;;;4.40;99.90;;;;;;5023292;28;20466;-78
2022/01/22 09:48:57;;;;;;;12.75;8.52;;;4.40;99.90;;;;;;5019660;28;20034;-78
2022/01/22 09:51:24;;;;;;;12.48;8.13;;;4.50;99.90;;;;;;5034319;28;20465;-78
2022/01/22 09:53:49;;;;;;;12.18;8.00;;;4.50;99.90;;;;;;5034632;28;20056;-79
2022/01/22 09:56:21;;;;;;;9.80;8.30;;;4.50;99.90;;;;;;5017096;28;20101;-78
2022/01/22 09:58:48;;;;;;;10.52;8.13;;;4.50;99.90;;;;;;5017796;28;20041;-78
2022/01/22 10:01:27;;;;;;;16.33;8.65;;;4.50;99.90;;;;;;5019879;28;20496;-79
2022/01/22 10:03:55;;;;;;;8.35;7.35;;;4.50;99.90;;;;;;5021014;28;20014;-79
2022/01/22 10:06:27;;;;;;;9.43;8.10;;;4.50;99.90;;;;;;5038655;28;20378;-77
2022/01/22 10:09:05;;;;;;;8.68;7.78;;;4.60;99.90;;;;;;5020900;28;20053;-77
2022/01/22 10:11:31;;;;;;;10.45;7.00;;;4.50;99.90;;;;;;5020524;28;20026;-78
2022/01/22 10:13:59;;;;;;;8.27;6.28;;;4.60;99.90;;;;;;5020893;28;20068;-78
2022/01/22 10:16:26;;;;;;;10.93;7.30;;;4.60;99.90;;;;;;5024955;28;20018;-79
2022/01/22 10:19:24;;;;;;;9.88;7.47;;;4.50;99.90;;;;;;5022003;28;20100;-78
2022/01/22 10:22:00;;;;;;;8.63;5.65;;;4.70;99.90;;;;;;5046735;28;20044;-78
2022/01/22 10:27:38;;;;;;;7.40;6.20;;;4.60;99.90;;;;;;5035506;28;20033;-78
2022/01/22 10:30:18;;;;;;;9.88;6.40;;;4.60;99.90;;;;;;5029295;28;20030;-77
2022/01/22 10:35:15;;;;;;;8.32;6.32;;;4.60;99.90;;;;;;5024019;28;20052;-78
2022/01/22 10:37:42;;;;;;;10.52;6.20;;;4.70;99.90;;;;;;5025563;28;20030;-78
2022/01/22 10:40:27;;;;;;;8.68;6.65;;;4.70;99.90;;;;;;5024282;28;20509;-78
2022/01/22 10:43:12;;;;;;;7.82;5.72;;;4.70;99.90;;;;;;5026957;28;20033;-77
2022/01/22 10:45:41;;;;;;;7.75;6.03;;;4.70;99.90;;;;;;5041273;28;20022;-78
2022/01/22 10:48:15;;;;;;;10.45;6.70;;;4.80;99.90;;;;;;5020461;28;20022;-77
2022/01/22 10:50:41;;;;;;;7.50;5.43;;;4.90;99.90;;;;;;5036724;28;20026;-77
2022/01/22 10:53:07;;;;;;;8.27;6.40;;;4.90;99.90;;;;;;5023083;28;20393;-77
2022/01/22 10:55:32;;;;;;;9.30;6.35;;;4.90;99.90;;;;;;5019376;28;20026;-78
2022/01/22 10:58:07;;;;;;;7.80;5.65;;;4.90;99.90;;;;;;5021605;28;20118;-77
2022/01/22 11:00:34;;;;;;;8.27;5.90;;;4.90;99.90;;;;;;5020369;28;20136;-77
2022/01/22 11:03:19;;;;;;;10.02;5.82;;;5.00;99.90;;;;;;5021701;28;20014;-79
2022/01/22 11:05:44;;;;;;;7.10;5.45;;;5.00;99.90;;;;;;5020180;28;20018;-77
2022/01/22 11:08:13;;;;;;;10.07;6.75;;;5.00;99.90;;;;;;5018160;28;20026;-78
2022/01/22 11:10:40;;;;;;;10.93;6.85;;;5.00;99.90;;;;;;5018302;28;20034;-78
2022/01/22 11:13:06;;;;;;;7.70;6.82;;;5.00;99.90;;;;;;5020489;28;20033;-78
2022/01/22 11:15:33;;;;;;;9.50;7.78;;;5.00;99.90;;;;;;5019619;28;20026;-77
2022/01/22 11:18:00;;;;;;;9.98;7.05;;;4.90;99.90;;;;;;5019789;28;20160;-77
2022/01/22 11:20:26;;;;;;;7.22;6.13;;;5.00;99.90;;;;;;5019357;28;20022;-78
2022/01/22 11:22:53;;;;;;;7.78;6.93;;;5.00;99.90;;;;;;5018601;28;20025;-78
2022/01/22 11:25:19;;;;;;;7.85;6.72;;;5.10;99.90;;;;;;5018640;28;20026;-78
2022/01/22 11:27:46;;;;;;;7.75;6.65;;;5.00;99.90;;;;;;5023641;28;20025;-79
2022/01/22 11:30:15;;;;;;;9.25;6.43;;;5.10;99.90;;;;;;5020081;28;20057;-78
2022/01/22 11:32:49;;;;;;;7.80;7.00;;;5.10;99.90;;;;;;5034512;28;20120;-77
2022/01/22 11:35:28;;;;;;;8.90;6.63;;;5.10;99.90;;;;;;5030265;28;20026;-78
2022/01/22 11:38:01;;;;;;;8.52;5.85;;;5.00;99.90;;;;;;5031573;28;20406;-78
2022/01/22 11:40:27;;;;;;;7.07;6.40;;;5.00;99.90;;;;;;5035468;28;20092;-79
2022/01/22 11:43:05;;;;;;;8.15;6.95;;;5.00;99.90;;;;;;5049414;28;20033;-78
2022/01/22 11:45:41;;;;;;;7.75;6.15;;;5.10;99.90;;;;;;5033096;28;20089;-77
2022/01/22 11:48:16;;;;;;;7.80;5.95;;;5.20;99.90;;;;;;5028042;28;20501;-79
2022/01/22 11:50:45;;;;;;;10.13;6.95;;;5.20;99.90;;;;;;5039013;28;20022;-78
2022/01/22 11:53:32;;;;;;;6.28;5.60;;;5.20;99.90;;;;;;5038087;28;20068;-77
2022/01/22 11:56:23;;;;;;;11.55;7.72;;;5.30;99.90;;;;;;5024156;28;20029;-77
2022/01/22 11:59:02;;;;;;;11.70;6.80;;;5.40;99.90;;;;;;5030098;28;20026;-78
2022/01/22 12:01:52;;;;;;;8.88;5.18;;;5.40;99.90;;;;;;5048723;28;20045;-77
2022/01/22 12:04:20;;;;;;;6.95;5.13;;;5.30;99.90;;;;;;5020196;28;20026;-78
2022/01/22 12:07:14;;;;;;;9.40;6.15;;;5.30;99.90;;;;;;5019037;28;20032;-78
2022/01/22 12:10:16;;;;;;;9.00;5.10;;;5.40;99.90;;;;;;5022685;28;20038;-77
2022/01/22 12:15:15;;;;;;;6.80;5.97;;;5.30;99.90;;;;;;5022647;28;20037;-78
2022/01/22 12:17:51;;;;;;;7.10;4.68;;;5.40;99.90;;;;;;5008016;28;20026;-78
2022/01/22 12:23:08;;;;;;;8.07;5.65;;;5.40;99.90;;;;;;5031855;28;20026;-78
2022/01/22 12:25:34;;;;;;;8.15;5.82;;;5.40;99.90;;;;;;5032877;28;20120;-77
2022/01/22 12:28:00;;;;;;;7.30;6.55;;;5.50;99.90;;;;;;5032605;28;20048;-78
2022/01/22 12:31:00;;;;;;;9.68;5.70;;;5.50;99.90;;;;;;5035167;28;20032;-77
2022/01/22 12:33:29;;;;;;;6.03;4.85;;;5.50;99.90;;;;;;5051201;28;20041;-77
2022/01/22 12:36:00;;;;;;;6.78;6.18;;;5.40;99.90;;;;;;5031022;28;20022;-78
2022/01/22 12:38:45;;;;;;;9.63;6.30;;;5.40;99.90;;;;;;5030172;28;20025;-77
2022/01/22 12:41:35;;;;;;;9.88;6.43;;;5.30;99.90;;;;;;5029571;28;20029;-78
2022/01/22 12:44:10;;;;;;;8.43;6.20;;;5.40;99.90;;;;;;5035253;28;20037;-78
2022/01/22 12:46:36;;;;;;;7.50;4.93;;;5.40;99.90;;;;;;5034288;28;20029;-80
2022/01/22 12:49:04;;;;;;;10.32;6.30;;;5.40;99.90;;;;;;5037189;28;20060;-78
2022/01/22 12:51:31;;;;;;;6.95;6.05;;;5.40;99.90;;;;;;5035143;28;20089;-77
2022/01/22 12:53:56;;;;;;;8.77;6.97;;;5.40;99.90;;;;;;5028063;28;20061;-78
2022/01/22 12:59:08;;;;;;;6.00;5.40;;;5.40;99.90;;;;;;5025915;28;20026;-77
2022/01/22 13:01:44;;;;;;;7.57;5.40;;;5.50;99.90;;;;;;5029654;28;20026;-78
2022/01/22 13:04:09;;;;;;;10.55;7.13;;;5.60;99.90;;;;;;5028400;28;20022;-77
2022/01/22 13:06:48;;;;;;;9.10;6.03;;;5.50;99.90;;;;;;5024298;28;20022;-78
2022/01/22 13:09:14;;;;;;;5.28;4.78;;;5.40;99.90;;;;;;5023706;28;20077;-78
2022/01/22 13:11:47;;;;;;;6.20;5.55;;;5.40;99.90;;;;;;5041196;28;20022;-78
2022/01/22 13:14:28;;;;;;;7.15;4.90;;;5.40;99.90;;;;;;5039942;28;20030;-78
2022/01/22 13:16:55;;;;;;;7.82;5.55;;;5.40;99.90;;;;;;5036665;28;20025;-78
2022/01/22 13:19:23;;;;;;;6.15;5.55;;;5.30;99.90;;;;;;5019077;28;20417;-77
2022/01/22 13:21:58;;;;;;;6.30;5.63;;;5.20;99.90;;;;;;5018462;28;20375;-78
2022/01/22 13:24:27;;;;;;;6.95;6.20;;;5.30;99.90;;;;;;5022723;28;20491;-76
2022/01/22 13:29:39;;;;;;;8.98;6.70;;;5.30;99.90;;;;;;5022833;28;20442;-78
2022/01/22 13:32:05;;;;;;;7.28;6.22;;;5.30;99.90;;;;;;5027774;28;20029;-77
2022/01/22 13:34:50;;;;;;;7.97;6.90;;;5.40;99.90;;;;;;5054267;23;20037;-75
2022/01/22 13:37:31;;;;;;;8.75;6.50;;;5.30;99.90;;;;;;5029352;28;20026;-74
2022/01/22 13:40:13;;;;;;;7.78;6.75;;;5.30;99.90;;;;;;5031442;28;20052;-74
2022/01/22 13:48:33;;;;;;;9.23;6.32;;;5.00;99.90;;;;;;5016550;28;20033;-74
2022/01/22 13:51:01;;;;;;;10.20;7.63;;;5.10;99.90;;;;;;5014668;28;20026;-72
2022/01/22 13:53:27;;;;;;;8.27;7.45;;;5.10;99.90;;;;;;5013847;28;20026;-75
2022/01/22 13:55:57;;;;;;;11.30;7.13;;;5.10;99.90;;;;;;5011396;28;20080;-74
2022/01/22 13:58:22;;;;;;;10.23;7.82;;;5.10;99.90;;;;;;5012664;28;20393;-75
2022/01/22 14:00:48;;;;;;;11.60;7.60;;;5.10;99.90;;;;;;5012589;28;20033;-73
2022/01/22 14:03:31;;;;;;;8.52;6.97;;;5.10;99.90;;;;;;5011426;28;20045;-75
2022/01/22 14:05:59;;;;;;;10.15;7.20;;;5.00;99.90;;;;;;5011138;28;20389;-75
2022/01/22 14:08:33;;;;;;;8.38;7.57;;;5.00;99.90;;;;;;5012718;28;20018;-73
2022/01/22 14:11:07;;;;;;;12.00;8.10;;;5.00;99.90;;;;;;5015435;28;20022;-72
2022/01/22 14:13:34;;;;;;;10.85;8.43;;;5.00;99.90;;;;;;5016484;28;20034;-74
2022/01/22 14:16:19;;;;;;;9.65;8.25;;;4.90;99.90;;;;;;5023049;28;20083;-74
2022/01/22 14:18:46;;;;;;;14.25;8.60;;;5.00;99.90;;;;;;5012563;28;20029;-73
2022/01/22 14:21:16;;;;;;;12.60;8.88;;;5.00;99.90;;;;;;5012361;28;20026;-73
2022/01/22 14:23:42;;;;;;;10.77;8.38;;;5.00;99.90;;;;;;5014464;28;20494;-73
2022/01/22 14:26:23;;;;;;;8.50;7.63;;;4.90;99.90;;;;;;5012600;28;20180;-74
2022/01/22 14:28:51;;;;;;;11.77;8.88;;;4.90;99.90;;;;;;5012381;28;20385;-73
2022/01/22 14:31:29;;;;;;;11.38;9.30;;;4.90;99.90;;;;;;5011954;28;20029;-73
2022/01/22 14:34:03;;;;;;;12.73;8.88;;;5.00;99.90;;;;;;5013087;28;20041;-72
2022/01/22 14:36:42;;;;;;;12.60;8.65;;;5.00;99.90;;;;;;5012121;28;20034;-73
2022/01/22 14:39:28;;;;;;;11.25;8.35;;;5.00;99.90;;;;;;5012334;28;20030;-73
2022/01/22 14:44:41;;;;;;;11.73;9.57;;;5.00;99.90;;;;;;5012837;28;20103;-73
2022/01/22 14:47:17;;;;;;;12.23;9.05;;;5.00;99.90;;;;;;5012233;28;20018;-73
2022/01/22 14:49:50;;;;;;;12.63;9.05;;;5.00;99.90;;;;;;5012193;28;20481;-73
2022/01/22 14:52:18;;;;;;;11.10;9.02;;;5.00;99.90;;;;;;5012231;28;20030;-73
2022/01/22 14:54:47;;;;;;;14.45;8.82;;;5.00;99.90;;;;;;5011861;28;20120;-73
2022/01/22 14:57:14;;;;;;;11.43;9.25;;;5.00;99.90;;;;;;5011593;28;20022;-74